Time;durP1;ratioP1;P1;durP2;ratioP2;P2;SDS_P1;SDS_P2;PMS_P1;PMS_P2;Temp;Humidity;BMP_temperature;BMP_pressure;BME280_temperature;BME280_humidity;BME280_pressure;Samples;Min_cycle;Max_cycle;Signal;HPM_P1;HPM_P2
2022/09/19 00:01:24;;;;;;;3.30;2.00;;;;;;;8.68;100.00;96873.80;1832465;78;21404;-62
2022/09/19 00:04:02;;;;;;;2.15;1.90;;;;;;;8.67;100.00;96884.23;1832275;77;21903;-62
2022/09/19 00:06:30;;;;;;;4.47;2.50;;;;;;;8.68;100.00;96879.14;1832489;78;21367;-62
2022/09/19 00:08:57;;;;;;;3.40;2.35;;;;;;;8.68;100.00;96880.48;1832304;78;20869;-61
2022/09/19 00:11:25;;;;;;;3.52;2.35;;;;;;;8.70;100.00;96875.63;1832194;78;20992;-62
2022/09/19 00:16:35;;;;;;;2.87;1.95;;;;;;;8.74;100.00;96881.92;1832346;78;21233;-61
2022/09/19 00:19:04;;;;;;;2.72;1.90;;;;;;;8.75;100.00;96887.52;1832225;78;20896;-61
2022/09/19 00:21:41;;;;;;;2.62;2.10;;;;;;;8.76;100.00;96890.44;1844278;77;21010;-61
2022/09/19 00:27:02;;;;;;;4.25;2.02;;;;;;;8.71;100.00;96889.22;1855029;77;21438;-62
2022/09/19 00:29:28;;;;;;;3.58;2.12;;;;;;;8.67;100.00;96896.24;1855095;77;21052;-62
2022/09/19 00:31:55;;;;;;;3.67;2.08;;;;;;;8.63;100.00;96892.61;1855221;77;21443;-62
2022/09/19 00:34:22;;;;;;;5.50;2.47;;;;;;;8.64;100.00;96888.86;1850468;77;21083;-62
2022/09/19 00:36:49;;;;;;;5.35;3.12;;;;;;;8.66;100.00;96888.80;1849211;77;21402;-63
2022/09/19 00:39:17;;;;;;;3.77;1.90;;;;;;;8.67;100.00;96881.56;1849147;77;20869;-62
2022/09/19 00:41:46;;;;;;;4.03;1.85;;;;;;;8.68;100.00;96890.62;1849253;77;21235;-61
2022/09/19 00:44:31;;;;;;;3.05;2.02;;;;;;;8.69;100.00;96884.73;1849425;77;20951;-62
2022/09/19 00:47:14;;;;;;;3.17;2.10;;;;;;;8.68;100.00;96886.61;1849330;77;20864;-61
2022/09/19 00:49:45;;;;;;;4.20;2.10;;;;;;;8.67;100.00;96887.69;1849603;77;21376;-61
2022/09/19 00:52:20;;;;;;;2.70;2.10;;;;;;;8.68;100.00;96887.95;1849449;77;20821;-61
2022/09/19 00:54:47;;;;;;;3.87;1.87;;;;;;;8.69;100.00;96884.73;1849836;77;21184;-62
2022/09/19 00:57:15;;;;;;;3.70;2.22;;;;;;;8.72;100.00;96888.11;1849204;77;20999;-61
2022/09/19 00:59:46;;;;;;;5.08;1.90;;;;;;;8.74;100.00;96883.25;1849179;77;20960;-61
2022/09/19 01:02:12;;;;;;;5.17;2.47;;;;;;;8.74;100.00;96882.71;1849279;77;21002;-61
2022/09/19 01:04:41;;;;;;;4.37;1.92;;;;;;;8.75;100.00;96887.52;1849210;77;20911;-62
2022/09/19 01:07:35;;;;;;;4.53;1.90;;;;;;;8.77;100.00;96886.66;1849186;77;21073;-61
2022/09/19 01:10:29;;;;;;;4.10;2.05;;;;;;;8.82;100.00;96890.54;1849234;77;20935;-62
2022/09/19 01:13:09;;;;;;;4.30;2.20;;;;;;;8.84;100.00;96889.14;1849190;77;20865;-62
2022/09/19 01:16:07;;;;;;;5.72;2.22;;;;;;;8.86;100.00;96895.50;1848906;77;21454;-62
2022/09/19 01:18:48;;;;;;;3.22;1.72;;;;;;;8.85;100.00;96895.28;1849197;77;20959;-61
2022/09/19 01:21:38;;;;;;;7.75;1.82;;;;;;;8.80;100.00;96891.39;1820132;77;21602;-62
2022/09/19 01:24:48;;;;;;;4.15;2.00;;;;;;;8.78;100.00;96897.59;1849195;77;20914;-63
2022/09/19 01:27:30;;;;;;;3.92;2.00;;;;;;;8.77;100.00;96893.33;1849163;77;20892;-61
2022/09/19 01:30:07;;;;;;;4.37;1.87;;;;;;;8.75;100.00;96892.85;1849148;77;20920;-62
2022/09/19 01:32:42;;;;;;;4.08;1.90;;;;;;;8.75;100.00;96893.65;1849170;77;20920;-62
2022/09/19 01:35:12;;;;;;;5.15;2.12;;;;;;;8.78;100.00;96897.59;1849118;77;21168;-62
2022/09/19 01:37:51;;;;;;;4.42;2.25;;;;;;;8.80;100.00;96904.20;1849491;77;20908;-61
2022/09/19 01:40:19;;;;;;;5.58;2.40;;;;;;;8.83;100.00;96908.16;1849388;77;21418;-62
2022/09/19 01:42:54;;;;;;;4.70;2.25;;;;;;;8.81;100.00;96904.97;1848105;77;20873;-61
2022/09/19 01:45:19;;;;;;;3.17;2.17;;;;;;;8.80;100.00;96909.55;1848880;77;21382;-61
2022/09/19 01:48:09;;;;;;;3.58;2.08;;;;;;;8.83;100.00;96908.16;1849143;77;21108;-62
2022/09/19 01:51:02;;;;;;;4.67;2.37;;;;;;;8.83;100.00;96909.48;1849399;77;21418;-61
2022/09/19 01:53:54;;;;;;;4.08;2.02;;;;;;;8.85;100.00;96905.96;1825746;77;20869;-61
2022/09/19 01:56:45;;;;;;;4.65;1.95;;;;;;;8.84;100.00;96911.84;1849274;77;20923;-61
2022/09/19 01:59:33;;;;;;;3.95;1.70;;;;;;;8.83;100.00;96916.16;1848878;77;20939;-62
2022/09/19 02:02:14;;;;;;;4.72;2.12;;;;;;;8.86;100.00;96918.20;1848023;77;21297;-63
2022/09/19 02:04:53;;;;;;;5.60;2.00;;;;;;;8.86;100.00;96921.67;1849592;77;20825;-61
2022/09/19 02:07:42;;;;;;;5.97;2.12;;;;;;;8.90;100.00;96922.63;1849251;77;20895;-61
2022/09/19 02:10:09;;;;;;;3.47;2.20;;;;;;;8.94;100.00;96915.61;1849080;77;20911;-62
2022/09/19 02:12:39;;;;;;;5.40;2.22;;;;;;;8.98;100.00;96920.31;1825791;77;20937;-61
2022/09/19 02:15:09;;;;;;;4.85;2.40;;;;;;;8.96;100.00;96912.62;1813963;79;21240;-62
2022/09/19 02:17:44;;;;;;;6.25;2.40;;;;;;;8.96;100.00;96923.30;1849070;77;20900;-62
2022/09/19 02:20:23;;;;;;;4.05;2.00;;;;;;;8.91;100.00;96921.55;1816767;77;21066;-62
2022/09/19 02:23:00;;;;;;;9.88;2.27;;;;;;;8.88;100.00;96919.48;1830153;77;21455;-61
2022/09/19 02:25:32;;;;;;;7.22;2.42;;;;;;;8.88;100.00;96922.69;1827200;78;20956;-62
2022/09/19 02:28:03;;;;;;;4.83;2.33;;;;;;;8.90;100.00;96927.20;1827087;78;21124;-61
2022/09/19 02:30:31;;;;;;;3.95;2.25;;;;;;;8.92;100.00;96926.34;1827039;78;20909;-61
2022/09/19 02:32:58;;;;;;;6.05;2.35;;;;;;;8.94;100.00;96928.16;1827164;78;20817;-61
2022/09/19 02:35:34;;;;;;;5.87;2.50;;;;;;;8.97;100.00;96920.09;1827033;78;20952;-61
2022/09/19 02:38:05;;;;;;;3.95;2.47;;;;;;;8.96;100.00;96929.98;1815429;78;20857;-62
2022/09/19 02:40:48;;;;;;;5.45;2.52;;;;;;;8.95;100.00;96933.73;1825902;78;21120;-62
2022/09/19 02:43:46;;;;;;;6.45;2.45;;;;;;;8.93;100.00;96934.05;1827007;78;21431;-62
2022/09/19 02:46:19;;;;;;;5.80;2.33;;;;;;;8.97;100.00;96935.58;1827044;78;20944;-60
2022/09/19 02:48:57;;;;;;;6.08;2.52;;;;;;;9.00;100.00;96938.95;1827066;78;20999;-61
2022/09/19 02:51:30;;;;;;;6.53;3.27;;;;;;;8.99;100.00;96940.06;1806842;78;20929;-61
2022/09/19 02:54:14;;;;;;;4.58;2.40;;;;;;;9.01;100.00;96936.53;1833769;78;21400;-61
2022/09/19 02:56:41;;;;;;;6.28;2.87;;;;;;;9.03;100.00;96944.23;1827032;78;20900;-61
2022/09/19 02:59:17;;;;;;;5.92;2.50;;;;;;;9.01;100.00;96945.88;1827135;78;20900;-62
2022/09/19 03:01:54;;;;;;;5.30;2.65;;;;;;;9.01;100.00;96955.23;1826999;78;20917;-61
2022/09/19 03:04:29;;;;;;;7.42;3.02;;;;;;;9.01;100.00;96950.42;1827093;78;20909;-61
2022/09/19 03:07:15;;;;;;;5.55;3.17;;;;;;;9.02;100.00;96952.02;1827350;78;21013;-62
2022/09/19 03:10:04;;;;;;;5.00;2.58;;;;;;;9.02;100.00;96948.02;1827074;78;21412;-61
2022/09/19 03:12:40;;;;;;;7.65;2.67;;;;;;;8.98;100.00;96949.69;1826410;78;20964;-61
2022/09/19 03:15:09;;;;;;;6.60;2.90;;;;;;;8.96;100.00;96952.68;1827340;78;20869;-62
2022/09/19 03:17:44;;;;;;;6.10;2.80;;;;;;;8.98;100.00;96953.70;1834071;78;20837;-62
2022/09/19 03:20:13;;;;;;;5.90;2.62;;;;;;;8.94;100.00;96958.34;1827085;78;21388;-62
2022/09/19 03:22:41;;;;;;;10.23;3.02;;;;;;;8.92;100.00;96959.73;1809671;79;20906;-62
2022/09/19 03:25:09;;;;;;;9.68;3.00;;;;;;;8.90;100.00;96962.69;1741242;82;20948;-61
2022/09/19 03:27:39;;;;;;;9.23;2.90;;;;;;;8.88;100.00;96963.54;1739758;82;20940;-61
2022/09/19 03:30:09;;;;;;;8.68;3.20;;;;;;;8.86;100.00;96974.28;1766811;80;21460;-62
2022/09/19 03:32:37;;;;;;;6.30;2.75;;;;;;;8.83;100.00;96982.91;1749353;82;21233;-62
2022/09/19 03:35:06;;;;;;;5.42;2.40;;;;;;;8.79;100.00;96973.91;1749339;81;20928;-62
2022/09/19 03:37:34;;;;;;;7.30;2.50;;;;;;;8.77;100.00;96986.78;1749707;81;21412;-62
2022/09/19 03:40:02;;;;;;;4.83;3.10;;;;;;;8.75;100.00;96984.96;1771537;81;20837;-63
2022/09/19 03:42:35;;;;;;;7.78;3.00;;;;;;;8.74;100.00;96980.70;1739421;82;21408;-61
2022/09/19 03:44:58;;;;;;;6.08;2.40;;;;;;;8.72;100.00;96982.89;1765813;80;21120;-62
2022/09/19 03:47:25;;;;;;;7.37;2.65;;;;;;;8.68;100.00;96997.40;1749477;82;21487;-62
2022/09/19 03:49:52;;;;;;;5.42;2.27;;;;;;;8.65;100.00;96997.20;1749435;82;20857;-62
2022/09/19 03:52:19;;;;;;;5.00;2.55;;;;;;;8.65;100.00;96993.19;1749516;82;21400;-62
2022/09/19 03:54:45;;;;;;;8.98;3.15;;;;;;;8.66;100.00;97000.92;1749429;82;20979;-63
2022/09/19 03:57:13;;;;;;;7.25;2.90;;;;;;;8.63;100.00;97007.39;1749418;81;21251;-61
2022/09/19 03:59:48;;;;;;;5.40;2.40;;;;;;;8.59;100.00;96995.20;1749253;81;20916;-61
2022/09/19 04:02:15;;;;;;;7.22;2.52;;;;;;;8.56;100.00;97010.48;1766481;80;20967;-61
2022/09/19 04:04:41;;;;;;;8.10;2.65;;;;;;;8.49;100.00;97009.30;1766435;81;20936;-62
2022/09/19 04:07:09;;;;;;;5.15;2.30;;;;;;;8.43;100.00;97013.95;1766380;81;20877;-62
2022/09/19 04:09:37;;;;;;;7.42;2.65;;;;;;;8.39;100.00;97011.64;1766350;80;21260;-63
2022/09/19 04:12:06;;;;;;;6.65;2.40;;;;;;;8.34;100.00;97009.64;1766290;81;20928;-63
2022/09/19 04:14:36;;;;;;;9.63;2.27;;;;;;;8.30;100.00;97011.31;1745198;81;21503;-62
2022/09/19 04:17:07;;;;;;;4.35;2.30;;;;;;;8.25;100.00;97013.52;1766371;81;20933;-62
2022/09/19 04:19:33;;;;;;;5.78;2.15;;;;;;;8.17;100.00;97017.66;1766649;80;21515;-65
2022/09/19 04:22:05;;;;;;;3.45;1.92;;;;;;;8.10;100.00;97015.94;1764266;80;21441;-64
2022/09/19 04:24:42;;;;;;;5.85;2.08;;;;;;;8.02;100.00;97020.64;1801151;79;20908;-63
2022/09/19 04:27:19;;;;;;;4.08;2.00;;;;;;;7.98;100.00;97028.20;1800086;79;20900;-63
2022/09/19 04:29:46;;;;;;;5.60;2.22;;;;;;;7.89;100.00;97029.98;1800826;79;20925;-63
2022/09/19 04:32:15;;;;;;;5.05;2.27;;;;;;;7.85;100.00;97032.97;1800997;79;20896;-63
2022/09/19 04:34:44;;;;;;;4.17;1.90;;;;;;;7.81;100.00;97039.45;1800731;79;22005;-64
2022/09/19 04:37:15;;;;;;;8.43;1.80;;;;;;;7.76;100.00;97040.88;1800157;79;21408;-64
2022/09/19 04:39:40;;;;;;;4.78;1.80;;;;;;;7.72;100.00;97045.22;1799435;79;21083;-63
2022/09/19 04:42:08;;;;;;;4.72;2.00;;;;;;;7.71;100.00;97044.16;1799246;79;21032;-64
2022/09/19 04:44:36;;;;;;;4.92;2.05;;;;;;;7.70;100.00;97059.36;1799358;79;21110;-63
2022/09/19 04:47:06;;;;;;;5.00;2.00;;;;;;;7.70;100.00;97045.27;1799341;79;21051;-62
2022/09/19 04:49:39;;;;;;;3.83;1.95;;;;;;;7.70;100.00;97050.03;1799244;79;21095;-65
2022/09/19 04:52:05;;;;;;;3.95;1.72;;;;;;;7.69;100.00;97048.47;1799833;79;20936;-64
2022/09/19 04:54:37;;;;;;;4.78;2.40;;;;;;;7.69;100.00;97055.12;1800373;79;20946;-64
2022/09/19 04:57:05;;;;;;;7.78;2.08;;;;;;;7.70;100.00;97059.36;1800615;79;20901;-64
2022/09/19 04:59:34;;;;;;;4.55;1.98;;;;;;;7.71;100.00;97058.29;1801095;79;21169;-63
2022/09/19 05:02:02;;;;;;;4.45;2.72;;;;;;;7.73;100.00;97056.11;1801028;79;20873;-64
2022/09/19 05:04:31;;;;;;;4.25;1.52;;;;;;;7.76;100.00;97058.73;1790597;79;20935;-64
2022/09/19 05:06:57;;;;;;;5.62;1.90;;;;;;;7.77;100.00;97062.46;1777780;79;20928;-64
2022/09/19 05:09:27;;;;;;;7.50;2.08;;;;;;;7.81;100.00;97070.65;1797281;79;21474;-63
2022/09/19 05:11:58;;;;;;;4.35;2.20;;;;;;;7.84;100.00;97076.20;1783311;79;21216;-65
2022/09/19 05:14:26;;;;;;;3.08;1.80;;;;;;;7.88;100.00;97075.84;1766634;79;20980;-63
2022/09/19 05:16:55;;;;;;;4.50;1.92;;;;;;;7.92;99.68;97086.70;1775128;79;20932;-65
2022/09/19 05:19:24;;;;;;;4.53;1.60;;;;;;;7.94;98.89;97091.98;1785170;79;20945;-63
2022/09/19 05:21:53;;;;;;;2.85;1.60;;;;;;;7.98;98.72;97088.20;1806220;77;21088;-65
2022/09/19 05:24:19;;;;;;;6.87;1.77;;;;;;;8.00;98.39;97089.49;1786067;80;21788;-65
2022/09/19 05:26:47;;;;;;;5.20;2.20;;;;;;;8.01;98.37;97095.06;1793075;77;21022;-63
2022/09/19 05:29:15;;;;;;;3.95;1.70;;;;;;;8.03;97.76;97094.22;1820986;77;21060;-64
2022/09/19 05:31:46;;;;;;;4.03;1.50;;;;;;;8.07;97.61;97092.56;1816271;77;21015;-64
2022/09/19 05:34:21;;;;;;;4.05;1.50;;;;;;;8.14;97.14;97086.30;1787221;77;21228;-61
2022/09/19 05:36:48;;;;;;;5.97;1.77;;;;;;;8.22;96.48;97091.45;1813286;77;21183;-67
2022/09/19 05:39:16;;;;;;;2.90;1.40;;;;;;;8.29;95.74;97101.79;1820170;77;20993;-65
2022/09/19 05:41:51;;;;;;;4.30;1.70;;;;;;;8.34;95.12;97100.36;1809438;77;21094;-64
2022/09/19 05:44:19;;;;;;;5.08;1.20;;;;;;;8.40;93.94;97097.83;1813126;78;21039;-63
2022/09/19 05:46:48;;;;;;;6.12;1.62;;;;;;;8.48;94.06;97102.48;1819861;78;20964;-64
2022/09/19 05:49:14;;;;;;;4.10;1.30;;;;;;;8.52;94.20;97104.25;1815127;77;21022;-64
2022/09/19 05:51:41;;;;;;;2.45;1.30;;;;;;;8.59;93.07;97099.84;1811243;77;20995;-64
2022/09/19 05:54:10;;;;;;;4.47;1.40;;;;;;;8.63;92.54;97106.16;1823826;77;21035;-65
2022/09/19 05:56:49;;;;;;;3.50;1.17;;;;;;;8.69;91.58;97104.98;1719943;77;21020;-65
2022/09/19 05:59:13;;;;;;;6.60;1.30;;;;;;;8.77;91.77;97114.94;1771735;80;21092;-65
2022/09/19 06:01:41;;;;;;;3.10;1.20;;;;;;;8.82;90.07;97114.83;1787259;78;21881;-63
2022/09/19 06:04:10;;;;;;;3.00;1.27;;;;;;;8.88;90.42;97114.95;1807389;77;21505;-62
2022/09/19 06:06:40;;;;;;;2.85;1.25;;;;;;;8.94;90.16;97124.45;1827842;77;21451;-64
2022/09/19 06:09:08;;;;;;;1.90;1.00;;;;;;;9.00;88.84;97123.81;1828018;77;21035;-63
2022/09/19 06:11:37;;;;;;;4.17;1.30;;;;;;;9.05;88.64;97127.14;1828517;77;21039;-62
2022/09/19 06:14:13;;;;;;;4.20;1.35;;;;;;;9.13;89.43;97135.00;1820803;78;21050;-62
2022/09/19 06:16:44;;;;;;;4.10;1.35;;;;;;;9.20;88.46;97131.36;1792632;79;20964;-62
2022/09/19 06:19:13;;;;;;;2.37;1.40;;;;;;;9.26;87.82;97130.94;1797569;78;21017;-62
2022/09/19 06:21:40;;;;;;;3.80;1.57;;;;;;;9.29;86.80;97154.39;1813272;77;21003;-63
2022/09/19 06:24:13;;;;;;;4.80;1.57;;;;;;;9.32;86.92;97140.44;1826679;76;21548;-62
2022/09/19 06:26:40;;;;;;;5.83;1.57;;;;;;;9.36;86.87;97137.40;1820467;77;21237;-62
2022/09/19 06:29:10;;;;;;;3.92;1.60;;;;;;;9.42;86.22;97142.86;1843929;77;21399;-62
2022/09/19 06:31:40;;;;;;;4.83;1.50;;;;;;;9.48;86.64;97136.86;1841672;77;21037;-62
2022/09/19 06:34:10;;;;;;;4.17;1.35;;;;;;;9.57;86.04;97133.16;1817743;77;21004;-63
2022/09/19 06:36:39;;;;;;;3.33;1.20;;;;;;;9.68;86.57;97148.39;1842022;77;21090;-63
2022/09/19 06:39:07;;;;;;;2.87;1.20;;;;;;;9.76;85.97;97144.20;1843485;77;21118;-59
2022/09/19 06:41:47;;;;;;;3.00;1.22;;;;;;;9.80;85.70;97148.64;1836429;77;21050;-57
2022/09/19 06:44:25;;;;;;;2.17;1.10;;;;;;;9.81;85.13;97160.13;1845166;77;21113;-66
2022/09/19 06:47:06;;;;;;;6.95;1.40;;;;;;;9.80;84.98;97158.00;1845421;77;21051;-67
2022/09/19 06:49:52;;;;;;;3.60;1.32;;;;;;;9.81;83.54;97166.27;1831707;77;22176;-62
2022/09/19 06:52:33;;;;;;;3.60;1.42;;;;;;;9.85;83.32;97158.41;1812921;77;21380;-62
2022/09/19 06:55:03;;;;;;;3.80;1.40;;;;;;;9.88;83.74;97181.89;1825506;77;20911;-63
2022/09/19 06:57:31;;;;;;;4.33;1.40;;;;;;;9.90;82.82;97160.97;1812671;77;21012;-63
2022/09/19 07:00:00;;;;;;;2.92;1.30;;;;;;;9.94;82.50;97157.95;1837320;77;20860;-67
2022/09/19 07:02:29;;;;;;;5.87;1.35;;;;;;;9.99;81.86;97168.50;1820632;77;21513;-62
2022/09/19 07:04:58;;;;;;;2.40;1.37;;;;;;;10.05;82.69;97167.29;1808364;77;21105;-62
2022/09/19 07:07:33;;;;;;;3.20;1.45;;;;;;;10.12;83.04;97171.69;1818393;77;20997;-62
2022/09/19 07:10:00;;;;;;;2.42;1.20;;;;;;;10.21;81.88;97176.53;1847073;77;21051;-63
2022/09/19 07:12:27;;;;;;;3.50;1.02;;;;;;;10.25;80.69;97176.16;1845830;77;21327;-65
2022/09/19 07:14:55;;;;;;;3.90;1.37;;;;;;;10.28;80.78;97184.38;1795556;79;21478;-64
2022/09/19 07:17:23;;;;;;;4.17;1.30;;;;;;;10.33;80.86;97172.75;1817147;77;21184;-65
2022/09/19 07:19:53;;;;;;;8.48;1.40;;;;;;;10.43;80.72;97183.73;1798486;78;21098;-64
2022/09/19 07:22:28;;;;;;;2.80;1.20;;;;;;;10.51;80.63;97190.45;1826334;75;20936;-62
2022/09/19 07:24:59;;;;;;;5.58;1.25;;;;;;;10.60;80.20;97192.62;1821691;77;21082;-63
2022/09/19 07:27:28;;;;;;;3.83;1.40;;;;;;;10.68;79.60;97186.52;1819809;78;21050;-63
2022/09/19 07:29:56;;;;;;;3.77;1.30;;;;;;;10.78;79.66;97186.24;1825046;78;21239;-64
2022/09/19 07:32:29;;;;;;;2.12;1.15;;;;;;;10.90;80.29;97190.43;1827722;77;21034;-63
2022/09/19 07:35:02;;;;;;;3.62;1.60;;;;;;;11.07;78.73;97192.94;1828210;78;20971;-63
2022/09/19 07:37:31;;;;;;;5.55;1.17;;;;;;;11.18;78.89;97202.25;1787352;79;21009;-63
2022/09/19 07:40:08;;;;;;;2.92;1.20;;;;;;;11.27;77.16;97188.31;1746764;80;21008;-64
2022/09/19 07:42:38;;;;;;;5.03;1.35;;;;;;;11.39;78.03;97200.02;1767762;80;21251;-64
2022/09/19 07:45:26;;;;;;;3.17;1.15;;;;;;;11.54;76.74;97186.13;1770244;80;20971;-61
2022/09/19 07:48:14;;;;;;;2.33;1.15;;;;;;;11.65;76.48;97186.61;1754329;80;21039;-63
2022/09/19 07:50:50;;;;;;;4.53;1.20;;;;;;;11.70;74.88;97189.17;1735046;80;21550;-63
2022/09/19 07:53:25;;;;;;;3.72;0.95;;;;;;;11.70;75.98;97189.72;1765058;81;21479;-63
2022/09/19 07:55:59;;;;;;;3.65;1.15;;;;;;;11.79;75.23;97190.50;1756498;80;22403;-61
2022/09/19 07:58:35;;;;;;;4.60;1.20;;;;;;;11.80;74.25;97188.83;1776584;80;21389;-59
2022/09/19 08:01:04;;;;;;;2.72;1.50;;;;;;;11.83;74.63;97201.61;1817609;78;21049;-65
2022/09/19 08:03:50;;;;;;;5.97;1.40;;;;;;;11.87;74.47;97197.19;1809102;79;21373;-66
2022/09/19 08:06:18;;;;;;;2.77;1.27;;;;;;;11.94;73.37;97204.78;1834633;78;21455;-66
2022/09/19 08:08:46;;;;;;;4.40;1.42;;;;;;;12.02;72.81;97204.76;1820072;76;48028;-64
2022/09/19 08:11:35;;;;;;;2.87;1.57;;;;;;;12.10;72.50;97207.20;1811265;78;21416;-67
2022/09/19 08:14:03;;;;;;;5.17;1.40;;;;;;;12.15;73.43;97204.36;1795779;78;21047;-66
2022/09/19 08:16:30;;;;;;;5.25;1.20;;;;;;;12.13;71.97;97203.31;1760123;79;21105;-67
2022/09/19 08:18:58;;;;;;;6.78;1.40;;;;;;;12.04;71.27;97207.91;1782329;80;21141;-65
2022/09/19 08:21:26;;;;;;;5.85;1.60;;;;;;;11.88;71.94;97213.53;1833190;78;22479;-66
2022/09/19 08:23:53;;;;;;;5.67;1.95;;;;;;;11.75;71.99;97213.16;1830546;77;21090;-65
2022/09/19 08:26:27;;;;;;;7.45;3.58;;;;;;;11.64;72.77;97219.89;1826831;77;21408;-64
2022/09/19 08:28:55;;;;;;;4.08;1.40;;;;;;;11.55;74.41;97220.44;1804163;77;20889;-65
2022/09/19 08:31:24;;;;;;;3.67;1.40;;;;;;;11.49;74.52;97222.47;1797625;79;20999;-67
2022/09/19 08:33:51;;;;;;;5.47;1.15;;;;;;;11.47;75.11;97225.27;1813575;77;21197;-64
2022/09/19 08:36:18;;;;;;;2.55;1.30;;;;;;;11.50;75.13;97234.00;1834472;77;20924;-62
2022/09/19 08:38:46;;;;;;;1.72;1.12;;;;;;;11.52;75.06;97229.11;1831492;77;20872;-64
2022/09/19 08:41:37;;;;;;;4.35;1.35;;;;;;;11.60;74.92;97226.45;1839164;76;20998;-64
2022/09/19 08:44:22;;;;;;;3.20;1.42;;;;;;;11.75;75.51;97221.20;1820505;77;21102;-62
2022/09/19 08:47:07;;;;;;;6.08;1.30;;;;;;;11.97;75.16;97223.70;1831041;77;21403;-62
2022/09/19 08:49:55;;;;;;;2.77;1.20;;;;;;;12.18;74.87;97219.26;1835019;77;21433;-63
2022/09/19 08:52:44;;;;;;;6.37;1.47;;;;;;;12.43;73.94;97215.50;1830408;77;21016;-64
2022/09/19 08:55:27;;;;;;;2.27;1.32;;;;;;;12.60;72.22;97204.70;1837507;77;21426;-64
2022/09/19 08:58:01;;;;;;;1.67;1.02;;;;;;;12.62;69.18;97219.95;1840439;77;21026;-63
2022/09/19 09:00:38;;;;;;;3.30;1.05;;;;;;;12.52;69.47;97221.08;1835638;77;21254;-59
2022/09/19 09:03:07;;;;;;;3.20;1.30;;;;;;;12.58;71.51;97224.36;1837447;77;20927;-63
2022/09/19 09:06:11;;;;;;;2.17;1.12;;;;;;;12.75;70.42;97217.05;1827860;77;21178;-60
2022/09/19 09:08:49;;;;;;;3.80;1.32;;;;;;;12.79;69.37;97222.55;1836755;77;20873;-64
2022/09/19 09:11:52;;;;;;;2.67;1.30;;;;;;;12.72;70.33;97225.73;1832316;77;20913;-65
2022/09/19 09:15:02;;;;;;;2.30;1.20;;;;;;;12.57;69.52;97240.27;1834133;77;21288;-62
2022/09/19 09:18:02;;;;;;;3.33;1.20;;;;;;;12.39;70.15;97240.84;1831700;77;20995;-65
2022/09/19 09:20:58;;;;;;;4.08;1.27;;;;;;;12.28;71.26;97240.41;1837378;77;20947;-64
2022/09/19 09:23:35;;;;;;;5.83;1.22;;;;;;;12.20;72.08;97239.86;1841569;77;21425;-63
2022/09/19 09:26:20;;;;;;;2.22;1.10;;;;;;;12.25;71.59;97237.56;1832440;77;21119;-63
2022/09/19 09:29:21;;;;;;;2.08;1.20;;;;;;;12.42;72.41;97236.19;1836663;77;21233;-64
2022/09/19 09:31:57;;;;;;;1.85;1.10;;;;;;;12.63;71.28;97243.00;1834388;77;21141;-63
2022/09/19 09:34:40;;;;;;;3.37;1.02;;;;;;;12.73;68.79;97249.37;1795391;79;21110;-63
2022/09/19 09:37:41;;;;;;;2.02;0.90;;;;;;;12.70;68.04;97254.04;1786468;79;21689;-64
2022/09/19 09:43:20;;;;;;;2.33;1.15;;;;;;;12.65;68.56;97248.83;1760726;79;21102;-65
2022/09/19 09:45:49;;;;;;;1.62;1.07;;;;;;;12.58;68.24;97243.17;1744314;80;21022;-64
2022/09/19 09:48:33;;;;;;;1.57;1.17;;;;;;;12.55;68.88;97245.17;1802216;79;21381;-63
2022/09/19 09:51:25;;;;;;;1.70;1.05;;;;;;;12.56;69.35;97249.42;1824042;77;21296;-63
2022/09/19 09:57:33;;;;;;;3.55;1.15;;;;;;;12.61;67.31;97250.59;1843278;77;21986;-66
2022/09/19 10:06:33;;;;;;;2.47;1.00;;;;;;;13.05;65.74;97250.11;1823339;77;21131;-65
2022/09/19 10:09:16;;;;;;;1.62;0.98;;;;;;;13.04;65.02;97245.86;1824169;77;21121;-64
2022/09/19 10:11:59;;;;;;;1.82;1.00;;;;;;;13.01;63.92;97256.70;1832390;76;21113;-60
2022/09/19 10:14:30;;;;;;;4.28;0.98;;;;;;;12.96;62.70;97256.08;1826048;77;21513;-63
2022/09/19 10:17:00;;;;;;;1.42;0.80;;;;;;;12.91;64.14;97264.32;1839557;77;21046;-64
2022/09/19 10:19:43;;;;;;;2.33;0.80;;;;;;;12.89;63.21;97263.31;1846444;77;21086;-60
2022/09/19 10:22:15;;;;;;;1.42;0.80;;;;;;;12.89;63.71;97254.45;1847805;77;21494;-59
2022/09/19 10:24:59;;;;;;;1.15;0.90;;;;;;;12.95;64.05;97265.27;1843139;77;21246;-60
2022/09/19 10:27:38;;;;;;;1.12;0.82;;;;;;;13.09;65.18;97267.22;1819477;77;20970;-60
2022/09/19 10:30:18;;;;;;;1.80;0.98;;;;;;;13.25;64.19;97262.86;1782172;80;21097;-63
2022/09/19 10:32:46;;;;;;;1.40;0.80;;;;;;;13.43;64.40;97265.68;1785073;80;21046;-65
2022/09/19 10:35:36;;;;;;;2.42;0.70;;;;;;;13.56;62.75;97261.98;1753231;80;20907;-68
2022/09/19 10:49:20;;;;;;;0.88;0.55;;;;;;;13.11;64.47;97274.41;1766827;81;20951;-66
2022/09/19 10:51:50;;;;;;;3.72;0.80;;;;;;;13.00;64.65;97283.91;1767789;81;21845;-65
2022/09/19 10:54:30;;;;;;;1.25;0.80;;;;;;;12.87;64.87;97279.52;1815061;77;21136;-65
2022/09/19 10:57:01;;;;;;;1.85;0.88;;;;;;;12.79;65.56;97281.67;1800600;78;21023;-66
2022/09/19 10:59:36;;;;;;;2.37;1.02;;;;;;;12.72;66.57;97282.17;1825797;78;21741;-66
2022/09/19 11:02:26;;;;;;;1.50;0.80;;;;;;;12.66;66.70;97279.98;1824961;78;21001;-65
2022/09/19 11:05:02;;;;;;;1.37;0.70;;;;;;;12.67;68.03;97278.88;1826521;78;21133;-66
2022/09/19 11:07:33;;;;;;;1.10;0.80;;;;;;;12.70;68.04;97284.39;1815290;78;20945;-65
2022/09/19 11:10:09;;;;;;;1.67;0.72;;;;;;;12.74;67.49;97286.66;1818839;77;21010;-66
2022/09/19 11:12:32;;;;;;;0.62;0.50;;;;;;;12.73;67.56;97285.65;1799209;78;20908;-66
2022/09/19 11:15:00;;;;;;;1.47;0.70;;;;;;;12.78;67.88;97286.27;1785190;78;21380;-65
2022/09/19 11:17:55;;;;;;;1.72;1.00;;;;;;;12.81;67.80;97290.22;1819327;78;21191;-64
2022/09/19 11:20:32;;;;;;;1.47;0.72;;;;;;;12.83;67.77;97293.38;1813009;78;21063;-66
2022/09/19 11:23:44;;;;;;;1.52;0.88;;;;;;;12.83;67.78;97290.14;1803672;79;20901;-66
2022/09/19 11:26:42;;;;;;;2.58;0.72;;;;;;;12.82;68.40;97293.13;1813730;78;20916;-66
2022/09/19 11:29:44;;;;;;;1.70;0.80;;;;;;;12.78;68.61;97297.57;1834867;77;20995;-65
2022/09/19 11:32:48;;;;;;;2.25;0.70;;;;;;;12.75;68.32;97298.20;1839813;77;21218;-65
2022/09/19 11:35:28;;;;;;;0.90;0.70;;;;;;;12.68;68.30;97296.56;1847824;77;21426;-66
2022/09/19 11:38:20;;;;;;;4.00;0.70;;;;;;;12.62;68.95;97296.52;1815971;77;21047;-66
2022/09/19 11:41:24;;;;;;;1.37;0.70;;;;;;;12.59;69.29;97297.14;1823951;77;21058;-64
2022/09/19 11:44:18;;;;;;;1.45;0.80;;;;;;;12.59;69.57;97303.86;1840101;77;21399;-66
2022/09/19 11:47:05;;;;;;;1.85;0.80;;;;;;;12.66;69.07;97299.58;1831734;77;21179;-67
2022/09/19 11:49:51;;;;;;;1.32;0.60;;;;;;;12.70;68.71;97294.34;1768720;79;21048;-65
2022/09/19 11:52:29;;;;;;;1.65;0.62;;;;;;;12.78;69.44;97297.57;1769083;79;20986;-65
2022/09/19 11:55:14;;;;;;;2.20;0.80;;;;;;;12.88;68.76;97299.92;1798957;79;21035;-66
2022/09/19 11:58:03;;;;;;;2.58;0.70;;;;;;;12.88;67.07;97306.64;1798585;79;21026;-66
2022/09/19 12:00:35;;;;;;;1.98;0.78;;;;;;;12.83;66.36;97306.81;1727703;80;21190;-67
2022/09/19 12:03:18;;;;;;;3.00;0.90;;;;;;;12.72;66.55;97298.84;1791452;79;20998;-65
2022/09/19 12:06:14;;;;;;;1.60;0.70;;;;;;;12.62;66.66;97308.60;1804550;79;21027;-67
2022/09/19 12:08:55;;;;;;;2.60;0.98;;;;;;;12.50;67.62;97310.59;1791827;79;21281;-66
2022/09/19 12:11:40;;;;;;;2.12;0.70;;;;;;;12.38;68.31;97306.97;1776155;80;20919;-67
2022/09/19 12:14:21;;;;;;;1.90;1.02;;;;;;;12.26;69.26;97313.78;1744294;82;20884;-66
2022/09/19 12:16:58;;;;;;;2.67;0.90;;;;;;;12.19;70.31;97309.44;1772189;80;20920;-67
2022/09/19 12:19:35;;;;;;;2.77;0.90;;;;;;;12.17;70.74;97317.02;1738242;80;21035;-66
2022/09/19 12:22:09;;;;;;;3.35;0.90;;;;;;;12.18;71.66;97315.91;1776266;80;20983;-66
2022/09/19 12:24:52;;;;;;;1.50;0.78;;;;;;;12.18;72.20;97314.56;1767575;81;20945;-66
2022/09/19 12:27:31;;;;;;;1.75;1.00;;;;;;;12.19;71.45;97318.04;1759498;81;21253;-66
2022/09/19 12:30:12;;;;;;;2.10;0.88;;;;;;;12.21;71.43;97315.28;1742653;81;20878;-67
2022/09/19 12:32:53;;;;;;;2.20;0.75;;;;;;;12.18;71.72;97312.42;1727712;81;20905;-68
2022/09/19 12:35:42;;;;;;;2.85;0.80;;;;;;;12.15;72.17;97321.89;1772238;80;21075;-67
2022/09/19 12:38:27;;;;;;;4.08;1.00;;;;;;;12.11;72.41;97318.27;1825320;78;20933;-67
2022/09/19 12:41:34;;;;;;;2.02;0.75;;;;;;;12.07;73.13;97322.70;1820021;77;21112;-65
2022/09/19 12:44:36;;;;;;;1.85;0.60;;;;;;;12.05;73.76;97318.75;1806549;78;21081;-61